createdAt,value
2022-07-29T00:01:30.402Z,101092.20
2022-07-29T00:06:34.835Z,101085.20
2022-07-29T00:11:39.858Z,101082.60
2022-07-29T00:16:44.431Z,101082.00
2022-07-29T00:21:49.335Z,101085.40
2022-07-29T00:26:54.499Z,101084.00
2022-07-29T00:31:59.147Z,101076.60
2022-07-29T00:37:04.244Z,101077.00
2022-07-29T00:42:09.897Z,101078.60
2022-07-29T00:47:14.785Z,101081.20
2022-07-29T00:52:19.434Z,101077.40
2022-07-29T00:57:27.003Z,101073.60
2022-07-29T01:02:32.343Z,101070.40
2022-07-29T01:07:38.798Z,101074.80
2022-07-29T01:12:46.878Z,101074.60
2022-07-29T01:18:18.856Z,101081.00
2022-07-29T01:23:54.971Z,101079.20
2022-07-29T01:29:56.046Z,101085.20
2022-07-29T01:35:21.819Z,101088.40
2022-07-29T01:40:41.022Z,101083.20
2022-07-29T01:45:54.347Z,101081.40
2022-07-29T01:51:06.474Z,101081.20
2022-07-29T01:56:13.036Z,101086.20
2022-07-29T02:01:19.628Z,101080.40
2022-07-29T02:06:25.947Z,101082.20
2022-07-29T02:11:35.050Z,101082.00
2022-07-29T02:16:42.895Z,101085.00
2022-07-29T02:21:49.040Z,101085.00
2022-07-29T02:26:58.300Z,101083.80
2022-07-29T02:32:04.403Z,101082.40
2022-07-29T02:37:13.597Z,101085.80
2022-07-29T02:42:24.558Z,101089.40
2022-07-29T02:47:51.475Z,101086.20
2022-07-29T02:53:14.194Z,101084.60
2022-07-29T02:58:32.540Z,101085.20
2022-07-29T03:03:40.717Z,101084.60
2022-07-29T03:08:46.763Z,101088.00
2022-07-29T03:13:54.932Z,101090.20
2022-07-29T03:19:01.325Z,101092.80
2022-07-29T03:24:12.549Z,101090.00
2022-07-29T03:29:17.222Z,101090.80
2022-07-29T03:34:25.385Z,101086.20
2022-07-29T03:39:36.249Z,101084.00
2022-07-29T03:44:46.248Z,101083.40
2022-07-29T03:49:55.931Z,101081.60
2022-07-29T03:55:00.837Z,101082.40
2022-07-29T04:00:07.351Z,101084.40
2022-07-29T04:05:16.665Z,101080.40
2022-07-29T04:10:30.061Z,101073.20
2022-07-29T04:15:37.787Z,101079.20
2022-07-29T04:20:42.395Z,101079.60
2022-07-29T04:25:50.102Z,101085.60
2022-07-29T04:30:55.931Z,101083.40
2022-07-29T04:36:00.317Z,101091.80
2022-07-29T04:41:05.777Z,101094.40
2022-07-29T04:46:10.660Z,101095.20
2022-07-29T04:51:17.061Z,101099.40
2022-07-29T04:56:21.666Z,101095.60
2022-07-29T05:01:26.487Z,101093.00
2022-07-29T05:06:31.605Z,101094.00
2022-07-29T05:11:36.331Z,101096.00
2022-07-29T05:16:44.792Z,101095.60
2022-07-29T05:21:51.361Z,101092.80
2022-07-29T05:26:59.744Z,101085.40
2022-07-29T05:32:08.287Z,101088.80
2022-07-29T05:37:15.332Z,101088.40
2022-07-29T05:42:20.073Z,101089.00
2022-07-29T05:47:26.912Z,101088.40
2022-07-29T05:52:32.223Z,101090.40
2022-07-29T05:57:36.674Z,101098.60
2022-07-29T06:02:41.566Z,101089.00
2022-07-29T06:07:50.108Z,101086.00
2022-07-29T06:12:58.684Z,101077.00
2022-07-29T06:18:03.658Z,101086.80
2022-07-29T06:23:12.386Z,101090.00
2022-07-29T06:28:17.426Z,101093.80
2022-07-29T06:33:23.164Z,101093.60
2022-07-29T06:38:31.516Z,101091.60
2022-07-29T06:43:51.944Z,101092.60
2022-07-29T06:48:58.423Z,101091.60
2022-07-29T06:54:03.822Z,101092.80
2022-07-29T06:59:12.997Z,101096.80
2022-07-29T07:04:19.644Z,101090.60
2022-07-29T07:09:40.587Z,101085.60
2022-07-29T07:14:45.851Z,101082.00
2022-07-29T07:19:51.038Z,101087.40
2022-07-29T07:24:59.306Z,101079.00
2022-07-29T07:30:10.514Z,101077.60
2022-07-29T07:35:16.079Z,101082.60
2022-07-29T07:40:22.312Z,101090.40
2022-07-29T07:45:27.851Z,101084.60
2022-07-29T07:50:32.400Z,101086.80
2022-07-29T08:01:08.936Z,101091.20
2022-07-29T08:06:17.035Z,101092.00
2022-07-29T08:11:24.683Z,101093.80
2022-07-29T08:16:30.846Z,101095.60
2022-07-29T08:21:36.236Z,101092.60
2022-07-29T08:26:41.289Z,101088.60
2022-07-29T08:31:47.887Z,101084.40
2022-07-29T08:36:52.943Z,101090.00
2022-07-29T08:41:59.619Z,101093.00
2022-07-29T08:47:05.382Z,101095.40
2022-07-29T08:52:17.692Z,101102.40
2022-07-29T08:57:29.010Z,101095.60
2022-07-29T09:02:42.647Z,101092.20
2022-07-29T09:07:49.764Z,101116.20
2022-07-29T09:12:56.519Z,101090.20
2022-07-29T09:18:02.289Z,101090.60
2022-07-29T09:23:10.571Z,101092.40
2022-07-29T09:28:22.059Z,101085.40
2022-07-29T09:33:41.909Z,101083.80
2022-07-29T09:39:04.859Z,101077.00
2022-07-29T09:44:18.914Z,101077.20
2022-07-29T09:49:23.903Z,101082.80
2022-07-29T09:54:31.875Z,101095.40
2022-07-29T09:59:37.062Z,101085.60
2022-07-29T10:04:55.923Z,101075.00
2022-07-29T10:10:01.995Z,101072.20
2022-07-29T10:15:07.999Z,101072.20
2022-07-29T10:20:16.492Z,101070.80
2022-07-29T10:25:23.566Z,101077.00
2022-07-29T10:30:31.472Z,101074.20
2022-07-29T10:35:52.530Z,101073.60
2022-07-29T10:41:43.731Z,101071.20
2022-07-29T10:46:49.828Z,101063.40
2022-07-29T10:52:11.955Z,101067.00
2022-07-29T10:57:53.251Z,101066.20
2022-07-29T11:02:55.730Z,101059.80
2022-07-29T11:08:19.958Z,101061.20
2022-07-29T11:13:44.768Z,101054.40
2022-07-29T11:19:13.614Z,101048.20
2022-07-29T11:24:37.748Z,101049.80
2022-07-29T11:30:05.933Z,101056.60
2022-07-29T11:35:37.088Z,101042.40
2022-07-29T11:40:44.507Z,101038.20
2022-07-29T11:45:52.997Z,101037.20
2022-07-29T11:50:58.904Z,101032.00
2022-07-29T11:56:04.928Z,101023.00
2022-07-29T12:01:16.694Z,101030.20
2022-07-29T12:06:24.839Z,101022.20
2022-07-29T12:11:30.324Z,101016.20
2022-07-29T12:16:39.344Z,101019.40
2022-07-29T12:21:56.566Z,101016.60
2022-07-29T12:27:02.599Z,101020.80
2022-07-29T12:32:19.342Z,101024.40
2022-07-29T12:37:33.325Z,101021.20
2022-07-29T12:43:12.487Z,101026.20
2022-07-29T12:48:18.175Z,101020.80
2022-07-29T12:53:23.096Z,101020.20
2022-07-29T12:58:45.209Z,101016.40
2022-07-29T13:03:57.132Z,101012.60
2022-07-29T13:09:10.420Z,101017.20
2022-07-29T13:14:40.851Z,101016.40
2022-07-29T13:19:56.424Z,101012.80
2022-07-29T13:25:04.256Z,101007.00
2022-07-29T13:30:20.880Z,101007.20
2022-07-29T13:35:28.322Z,101005.20
2022-07-29T13:40:34.516Z,101003.00
2022-07-29T13:45:40.823Z,101001.00
2022-07-29T13:50:47.665Z,100991.80
2022-07-29T13:55:55.149Z,100988.20
2022-07-29T14:00:59.810Z,100984.40
2022-07-29T14:06:07.878Z,100987.80
2022-07-29T14:11:16.649Z,100991.00
2022-07-29T14:16:30.181Z,100990.00
2022-07-29T14:21:37.861Z,100984.00
2022-07-29T14:26:46.260Z,100989.20
2022-07-29T14:31:56.517Z,100979.60
2022-07-29T14:37:03.663Z,100976.40
2022-07-29T14:42:13.087Z,100976.60
2022-07-29T14:47:20.532Z,100973.80
2022-07-29T14:52:26.275Z,100980.00
2022-07-29T14:57:43.163Z,100967.80
2022-07-29T15:03:01.880Z,100974.20
2022-07-29T15:08:10.049Z,100963.40
2022-07-29T15:13:16.448Z,100962.80
2022-07-29T15:18:25.765Z,100963.20
2022-07-29T15:23:31.878Z,100956.00
2022-07-29T15:28:36.502Z,100960.20
2022-07-29T15:33:42.210Z,100966.40
2022-07-29T15:38:47.231Z,100961.20
2022-07-29T15:43:53.521Z,100954.40
2022-07-29T15:48:58.806Z,100951.20
2022-07-29T15:54:07.188Z,100948.60
2022-07-29T15:59:22.209Z,100935.60
2022-07-29T16:04:28.583Z,100931.00
2022-07-29T16:09:33.837Z,100928.20
2022-07-29T16:14:39.631Z,100924.80
2022-07-29T16:19:48.871Z,100914.00
2022-07-29T16:24:54.065Z,100911.40
2022-07-29T16:30:00.745Z,100915.80
2022-07-29T16:35:08.606Z,100910.40
2022-07-29T16:40:13.649Z,100922.60
2022-07-29T16:45:46.474Z,100912.20
2022-07-29T16:50:53.745Z,100907.20
2022-07-29T16:55:59.003Z,100920.20
2022-07-29T17:01:04.331Z,100922.40
2022-07-29T17:06:09.552Z,100920.80
2022-07-29T17:11:16.151Z,100913.40
2022-07-29T17:16:26.328Z,100911.00
2022-07-29T17:21:31.267Z,100917.40
2022-07-29T17:26:36.217Z,100916.20
2022-07-29T17:31:40.840Z,100917.60
2022-07-29T17:36:46.177Z,100920.60
2022-07-29T17:41:52.144Z,100924.00
2022-07-29T17:46:57.763Z,100920.60
2022-07-29T17:52:02.563Z,100916.20
2022-07-29T17:57:07.579Z,100925.60
2022-07-29T18:02:14.937Z,100924.80
2022-07-29T18:07:19.923Z,100933.20
2022-07-29T18:12:24.285Z,100935.60
2022-07-29T18:17:34.581Z,100933.80
2022-07-29T18:22:56.672Z,100940.40
2022-07-29T18:28:01.806Z,100943.20
2022-07-29T18:33:25.984Z,100946.60
2022-07-29T18:38:31.063Z,100940.40
2022-07-29T18:43:43.998Z,100934.80
2022-07-29T18:48:54.668Z,100937.80
2022-07-29T18:54:01.313Z,100936.60
2022-07-29T18:59:07.785Z,100934.40
2022-07-29T19:04:16.967Z,100934.40
2022-07-29T19:09:24.511Z,100937.80
2022-07-29T19:14:30.270Z,100938.00
2022-07-29T19:19:36.043Z,100941.00
2022-07-29T19:24:44.173Z,100945.60
2022-07-29T19:29:49.319Z,100941.60
2022-07-29T19:35:13.777Z,100948.80
2022-07-29T19:40:21.134Z,100941.80
2022-07-29T19:45:27.188Z,100943.00
2022-07-29T19:50:36.917Z,100942.00
2022-07-29T19:55:44.308Z,100942.00
2022-07-29T20:00:51.988Z,100944.60
2022-07-29T20:05:57.700Z,100937.20
2022-07-29T20:11:04.807Z,100942.20
2022-07-29T20:16:10.054Z,100939.60
2022-07-29T20:21:14.861Z,100938.60
2022-07-29T20:26:19.787Z,100944.20
2022-07-29T20:31:25.289Z,100945.80
2022-07-29T20:36:31.472Z,100946.00
2022-07-29T20:41:37.504Z,100950.40
2022-07-29T20:46:43.505Z,100952.40
2022-07-29T20:51:47.629Z,100948.20
2022-07-29T20:56:51.968Z,100943.00
2022-07-29T21:01:56.386Z,100946.60
2022-07-29T21:07:00.888Z,100945.60
2022-07-29T21:12:05.975Z,100951.20
2022-07-29T21:17:10.756Z,100951.40
2022-07-29T21:22:15.109Z,100954.40
2022-07-29T21:27:38.565Z,100951.60
2022-07-29T21:32:42.971Z,100949.80
2022-07-29T21:37:47.367Z,100941.00
2022-07-29T21:42:51.515Z,100938.20
2022-07-29T21:47:55.948Z,100933.80
2022-07-29T21:53:00.622Z,100927.00
2022-07-29T21:58:05.438Z,100923.20
2022-07-29T22:03:10.604Z,100929.20
2022-07-29T22:08:15.139Z,100928.80
2022-07-29T22:13:19.285Z,100926.80
2022-07-29T22:18:23.309Z,100929.20
2022-07-29T22:23:27.558Z,100928.00
2022-07-29T22:28:31.905Z,100926.60
2022-07-29T22:33:36.038Z,100925.00
2022-07-29T22:38:40.365Z,100931.60
2022-07-29T22:43:44.604Z,100921.80
2022-07-29T22:48:48.675Z,100909.60
2022-07-29T22:53:53.084Z,100907.20
2022-07-29T22:58:57.417Z,100908.00
2022-07-29T23:04:01.625Z,100905.00
2022-07-29T23:09:06.844Z,100899.00
2022-07-29T23:14:11.277Z,100893.20
2022-07-29T23:19:15.620Z,100891.40
2022-07-29T23:24:32.129Z,100890.00
2022-07-29T23:29:36.932Z,100893.00
2022-07-29T23:34:41.254Z,100884.60
2022-07-29T23:39:45.587Z,100884.20
2022-07-29T23:44:50.118Z,100887.00
2022-07-29T23:49:56.610Z,100883.40
2022-07-29T23:55:37.333Z,100880.40
